Flight Track Log - Related Links

Times and Time Zones

All times are in EDT time to prevent confusion due to time zone crossing. See the UAL1169 flight status page for this flight to view local times or setup timezone preferences in your user account.


Time Position Orientation Groundspeed Altitude Reporting Facility
EDT Latitude Longitude Course Direction KTS MPH feet Rate Location/Type
Thu 10:16:23 AM 29.9917 -95.3714 291° West 196 226 1,100  Level Houston Center
Thu 10:17:18 AM 29.9881 -95.4247 266° West 203 234 2,600 1,541 Climbing Houston Center
Thu 10:18:00 AM 30.0130 -95.6077 279° West  Level FlightAware Approximate
Thu 10:18:12 AM 29.9833 -95.4911 265° West 249 287 3,900  Level Houston Center
Thu 10:19:00 AM 30.0279 -95.7458 277° West  Level FlightAware Approximate
Thu 10:19:13 AM 29.9903 -95.5789 275° West 276 318 6,100  Level Houston Center
Thu 10:20:00 AM 30.0404 -95.8842 276° West  Level FlightAware Approximate
Thu 10:20:14 AM 30.0092 -95.6869 281° West 286 329 9,500  Level Houston Center
Thu 10:21:00 AM 30.0571 -96.0214 291° West  Level FlightAware Approximate
Thu 10:21:15 AM 30.0261 -95.7847 281° West 313 360 11,300  Level Houston Center
Thu 10:22:17 AM 30.0442 -95.8964 281° West 353 406 13,100 2,000 Climbing Houston Center
Thu 10:23:18 AM 30.0625 -96.0172 280° West 380 437 15,400 2,066 Climbing Houston Center
Thu 10:24:19 AM 30.0808 -96.1281 281° West 385 443 17,300 2,164 Climbing Houston Center
Thu 10:25:20 AM 30.1039 -96.2811 280° West 403 464 19,800 2,244 Climbing Houston Center
Thu 10:26:22 AM 30.1236 -96.4086 280° West 406 467 21,900 1,854 Climbing Houston Center
Thu 10:27:23 AM 30.1444 -96.5433 280° West 412 474 23,600 1,623 Climbing Houston Center
Thu 10:28:24 AM 30.1644 -96.6778 280° West 421 484 25,200 1,561 Climbing Houston Center
Thu 10:29:26 AM 30.1844 -96.8150 280° West 426 490 26,800 1,561 Climbing Houston Center
Thu 10:30:27 AM 30.2053 -96.9536 280° West 431 496 28,400 2,016 Climbing Houston Center
Thu 10:31:28 AM 30.2250 -97.0883 280° West 421 484 30,900 1,951 Climbing Houston Center
Thu 10:32:30 AM 30.2469 -97.2147 281° West 402 463 32,400 1,366 Climbing Houston Center
Thu 10:33:31 AM 30.2747 -97.3389 285° West 394 453 33,700 780 Climbing Houston Center
Thu 10:34:33 AM 30.3039 -97.4625 285° West 394 453 34,000 146 Climbing Houston Center
Thu 10:35:34 AM 30.3322 -97.5894 285° West 400 460 34,000  Level Houston Center
Thu 10:36:35 AM 30.3611 -97.7161 285° West 401 461 34,000  Level Houston Center
Thu 10:37:37 AM 30.3897 -97.8422 285° West 400 460 34,000  Level Houston Center
Thu 10:38:38 AM 30.4167 -97.9683 284° West 397 457 34,000  Level Houston Center
Thu 10:39:40 AM 30.4408 -98.0967 282° West 403 464 34,000  Level Houston Center
Thu 10:40:41 AM 30.4503 -98.2286 275° West 407 468 34,000  Level Houston Center
Thu 10:41:42 AM 30.4600 -98.3622 275° West 411 473 34,000  Level Houston Center
Thu 10:42:44 AM 30.4672 -98.4944 274° West 410 472 34,000  Level Houston Center
Thu 10:43:45 AM 30.4753 -98.6508 273° West 412 474 34,000  Level Houston Center
Thu 10:44:47 AM 30.4831 -98.7853 274° West 414 476 34,000  Level Houston Center
Thu 10:45:48 AM 30.4908 -98.9225 274° West 421 484 34,000  Level Houston Center
Thu 10:46:49 AM 30.4975 -99.0589 273° West 423 487 34,000  Level Houston Center
Thu 10:47:51 AM 30.5061 -99.1967 274° West 421 484 34,000  Level Houston Center
Thu 10:48:52 AM 30.5136 -99.3319 274° West 423 487 34,000  Level Houston Center
Thu 10:49:53 AM 30.5194 -99.4669 273° West 421 484 34,000  Level Houston Center
Thu 10:50:55 AM 30.5272 -99.6017 274° West 421 484 34,000  Level Houston Center
Thu 10:51:56 AM 30.5339 -99.7375 273° West 424 488 34,000  Level Houston Center
Thu 10:52:58 AM 30.5372 -99.8725 272° West 428 493 34,000  Level Houston Center
Thu 10:53:59 AM 30.5442 -100.0083 273° West 427 491 34,000  Level Houston Center
Thu 10:55:00 AM 30.5522 -100.1761 273° West 441 507 34,000  Level Houston Center
Thu 10:56:02 AM 30.5594 -100.3164 273° West 440 506 34,000  Level Houston Center
Thu 10:57:03 AM 30.5656 -100.4558 273° West 439 505 34,000  Level Houston Center
Thu 10:58:04 AM 30.5714 -100.5953 273° West 437 503 34,000  Level Houston Center
Thu 10:59:05 AM 30.5778 -100.7356 273° West 438 504 34,000  Level Houston Center
Thu 11:00:07 AM 30.5822 -100.8758 272° West 438 504 34,000  Level Houston Center
Thu 11:01:08 AM 30.5883 -101.0161 273° West 439 505 34,000  Level Houston Center
Thu 11:02:09 AM 30.5944 -101.1864 272° West 441 507 34,000  Level Houston Center
Thu 11:03:11 AM 30.5997 -101.3311 272° West 448 516 34,000  Level Houston Center
Thu 11:04:12 AM 30.6108 -101.4778 275° West 461 531 34,000  Level Houston Center
Thu 11:05:13 AM 30.6378 -101.6236 282° West 453 521 34,000  Level Houston Center
Thu 11:06:15 AM 30.6647 -101.7639 283° West 446 513 34,000  Level Houston Center
Thu 11:07:16 AM 30.6914 -101.9050 282° West 447 514 34,000  Level Houston Center
Thu 11:08:18 AM 30.7317 -102.0378 289° West 441 507 34,000  Level Houston Center
Thu 11:09:19 AM 30.7728 -102.1703 290° West 435 501 34,000  Level Houston Center
Thu 11:10:20 AM 30.8139 -102.3014 290° West 432 497 34,000  Level Houston Center
Thu 11:11:27 AM 30.8611 -102.4564 290° West 430 495 34,000  Level Albuquerque Center
Thu 11:12:28 AM 30.9014 -102.5878 290° West 428 493 34,000  Level Albuquerque Center
Thu 11:13:30 AM 30.9408 -102.7203 289° West 430 495 34,000  Level Albuquerque Center
Thu 11:14:32 AM 30.9808 -102.8522 290° West 431 496 34,000  Level Albuquerque Center
Thu 11:15:34 AM 31.0197 -102.9842 289° West 431 496 34,000  Level Albuquerque Center
Thu 11:16:36 AM 31.0589 -103.1156 289° West 430 495 34,000  Level Albuquerque Center
Thu 11:17:38 AM 31.1072 -103.2775 289° West 436 502 34,000  Level Albuquerque Center
Thu 11:18:40 AM 31.1469 -103.4119 289° West 438 504 34,000  Level Albuquerque Center
Thu 11:19:42 AM 31.1858 -103.5472 289° West 439 505 34,000  Level Albuquerque Center
Thu 11:20:43 AM 31.2256 -103.6831 289° West 441 507 34,000  Level Albuquerque Center
Thu 11:21:45 AM 31.2683 -103.8300 289° West 443 510 34,000  Level Albuquerque Center
Thu 11:22:47 AM 31.3075 -103.9653 289° West 441 507 34,000  Level Albuquerque Center
Thu 11:23:49 AM 31.3478 -104.1014 289° West 444 511 34,000  Level Albuquerque Center
Thu 11:24:51 AM 31.3861 -104.2358 289° West 440 506 34,000  Level Albuquerque Center
Thu 11:25:53 AM 31.4258 -104.3711 289° West 441 507 34,000  Level Albuquerque Center
Thu 11:26:54 AM 31.4717 -104.5325 288° West 439 505 34,000  Level Albuquerque Center
Thu 11:27:56 AM 31.5106 -104.6672 289° West 439 505 34,000  Level Albuquerque Center
Thu 11:28:58 AM 31.5494 -104.8036 289° West 442 509 34,000  Level Albuquerque Center
Thu 11:30:00 AM 31.5869 -104.9400 288° West 442 509 34,000  Level Albuquerque Center
Thu 11:31:02 AM 31.6258 -105.0778 288° West 446 513 34,000  Level Albuquerque Center
Thu 11:32:04 AM 31.6636 -105.2147 288° West 446 513 34,000  Level Albuquerque Center
Thu 11:33:05 AM 31.7108 -105.3831 288° West 454 522 34,000  Level Albuquerque Center
Thu 11:34:07 AM 31.7478 -105.5217 287° West 449 517 34,000  Level Albuquerque Center
Thu 11:35:09 AM 31.7869 -105.6625 288° West 454 522 34,000  Level Albuquerque Center
Thu 11:36:11 AM 31.8250 -105.8025 288° West 452 520 34,000  Level Albuquerque Center
Thu 11:37:12 AM 31.8633 -105.9422 288° West 451 519 34,000  Level Albuquerque Center
Thu 11:38:14 AM 31.9031 -106.0892 288° West 452 520 34,000  Level Albuquerque Center
Thu 11:39:16 AM 31.9425 -106.2306 288° West 454 522 34,000  Level Albuquerque Center
Thu 11:40:17 AM 31.9794 -106.3756 287° West 461 531 34,000  Level Albuquerque Center
Thu 11:41:19 AM 32.0206 -106.5492 286° West 459 528 34,000  Level Albuquerque Center
Thu 11:42:21 AM 32.0567 -106.6942 286° West 461 531 34,000  Level Albuquerque Center
Thu 11:43:22 AM 32.0933 -106.8403 287° West 463 533 34,000  Level Albuquerque Center
Thu 11:44:24 AM 32.1292 -106.9869 286° West 464 534 34,000  Level Albuquerque Center
Thu 11:45:26 AM 32.1639 -107.1350 286° West 464 534 34,000  Level Albuquerque Center
Thu 11:46:27 AM 32.2014 -107.3017 285° West 469 540 34,000  Level Albuquerque Center
Thu 11:47:29 AM 32.2364 -107.4489 286° West 469 540 34,000  Level Albuquerque Center
Thu 11:48:30 AM 32.2689 -107.5786 287° West 459 528 34,000  Level Albuquerque Center
Thu 11:49:32 AM 32.3031 -107.7228 286° West 454 522 34,000  Level Albuquerque Center
Thu 11:50:33 AM 32.3383 -107.8636 287° West 449 517 34,000  Level Albuquerque Center
Thu 11:51:35 AM 32.3808 -108.0356 286° West 451 519 34,000  Level Albuquerque Center
Thu 11:52:36 AM 32.4164 -108.1783 286° West 453 521 34,000  Level Albuquerque Center
Thu 11:53:38 AM 32.4497 -108.3206 286° West 450 518 34,000  Level Albuquerque Center
Thu 11:54:40 AM 32.4906 -108.4611 289° West 451 519 34,000  Level Albuquerque Center
Thu 11:55:41 AM 32.5314 -108.6008 289° West 450 518 34,000  Level Albuquerque Center
Thu 11:56:43 AM 32.5719 -108.7417 289° West 451 519 34,000  Level Albuquerque Center
Thu 11:57:44 AM 32.6114 -108.8831 288° West 452 520 34,000  Level Albuquerque Center
Thu 11:58:46 AM 32.6506 -109.0247 288° West 452 520 34,000  Level Albuquerque Center
Thu 11:59:47 AM 32.6975 -109.1950 288° West 453 521 34,000  Level Albuquerque Center
Thu 12:00:49 PM 32.7367 -109.3386 288° West 455 524 34,000  Level Albuquerque Center
Thu 12:01:50 PM 32.7772 -109.4822 289° West 457 526 34,000  Level Albuquerque Center
Thu 12:02:52 PM 32.8169 -109.6256 288° West 457 526 34,000  Level Albuquerque Center
Thu 12:03:53 PM 32.8564 -109.7683 288° West 457 526 34,000  Level Albuquerque Center
Thu 12:04:55 PM 32.8947 -109.9125 288° West 457 526 34,000  Level Albuquerque Center
Thu 12:05:57 PM 32.9428 -110.0575 292° West 462 532 34,000  Level Albuquerque Center
Thu 12:06:58 PM 32.9836 -110.2019 289° West 462 532 34,000  Level Albuquerque Center
Thu 12:08:00 PM 33.0297 -110.3758 288° West 459 528 34,000  Level Albuquerque Center
Thu 12:09:01 PM 33.0689 -110.5186 288° West 456 525 34,000  Level Albuquerque Center
Thu 12:10:03 PM 33.1078 -110.6628 288° West 456 525 34,000  Level Albuquerque Center
Thu 12:11:05 PM 33.1453 -110.8064 287° West 456 525 34,000  Level Albuquerque Center
Thu 12:12:06 PM 33.1822 -110.9500 287° West 454 522 34,000  Level Albuquerque Center
Thu 12:13:08 PM 33.2211 -111.0922 288° West 450 518 34,000  Level Albuquerque Center
Thu 12:14:09 PM 33.2586 -111.2361 287° West 452 520 34,000  Level Albuquerque Center
Thu 12:15:11 PM 33.2958 -111.3797 287° West 453 521 34,000  Level Albuquerque Center
Thu 12:16:13 PM 33.3400 -111.5522 287° West 452 520 34,000  Level Albuquerque Center
Thu 12:17:14 PM 33.3772 -111.6964 287° West 452 520 34,000  Level Albuquerque Center
Thu 12:18:16 PM 33.4144 -111.8419 287° West 454 522 34,000  Level Albuquerque Center
Thu 12:19:18 PM 33.4508 -111.9858 287° West 452 520 34,000  Level Albuquerque Center
Thu 12:20:20 PM 33.4875 -112.1311 287° West 452 520 34,000  Level Albuquerque Center
Thu 12:21:21 PM 33.5239 -112.2761 287° West 452 520 34,000  Level Albuquerque Center
Thu 12:22:23 PM 33.5603 -112.4214 287° West 452 520 34,000  Level Albuquerque Center
Thu 12:23:25 PM 33.5967 -112.5647 287° West 449 517 34,000  Level Albuquerque Center
Thu 12:24:27 PM 33.6342 -112.7172 286° West 451 519 34,000  Level Albuquerque Center
Thu 12:25:28 PM 33.6750 -112.8836 286° West 452 520 34,000  Level Albuquerque Center
Thu 12:26:30 PM 33.7108 -113.0294 286° West 453 521 34,000  Level Albuquerque Center
Thu 12:27:32 PM 33.7467 -113.1744 287° West 454 522 34,000  Level Albuquerque Center
Thu 12:28:34 PM 33.7808 -113.3214 286° West 455 524 34,000  Level Albuquerque Center
Thu 12:29:36 PM 33.8175 -113.4672 287° West 456 525 34,000  Level Albuquerque Center
Thu 12:30:37 PM 33.8522 -113.6144 286° West 456 525 34,000  Level Albuquerque Center
Thu 12:31:39 PM 33.8872 -113.7611 286° West 457 526 34,000  Level Albuquerque Center
Thu 12:32:41 PM 33.9281 -113.9375 286° West 457 526 34,000  Level Albuquerque Center
Thu 12:33:43 PM 33.9622 -114.0856 286° West 458 527 34,000  Level Albuquerque Center
Thu 12:34:45 PM 33.9794 -114.2386 278° West 457 526 34,000  Level Albuquerque Center
Thu 12:35:47 PM 33.9925 -114.3911 276° West 459 528 34,000  Level Albuquerque Center
Thu 12:36:49 PM 34.0050 -114.5428 276° West 458 527 34,000  Level Albuquerque Center
Thu 12:38:20 PM 34.0294 -114.7897 277° West 454 522 34,000  Level Los Angeles Center
Thu 12:39:22 PM 34.0433 -114.9408 276° West 455 524 34,000  Level Los Angeles Center
Thu 12:40:24 PM 34.0564 -115.0906 276° West 454 522 34,000  Level Los Angeles Center
Thu 12:41:26 PM 34.0689 -115.2425 276° West 455 524 34,000  Level Los Angeles Center
Thu 12:42:28 PM 34.0819 -115.3939 276° West 456 525 34,000  Level Los Angeles Center
Thu 12:43:30 PM 34.0972 -115.5750 276° West 455 524 34,000  Level Los Angeles Center
Thu 12:44:32 PM 34.1089 -115.7253 275° West 454 522 34,000 -387 Level Los Angeles Center
Thu 12:45:34 PM 34.0986 -115.8758 265° West 453 521 33,200 -1,500 Descending Los Angeles Center
Thu 12:46:36 PM 34.0747 -116.0233 259° West 450 518 30,900 -1,984 Descending Los Angeles Center
Thu 12:47:38 PM 34.0533 -116.1719 260° West 452 520 29,100 -1,694 Descending Los Angeles Center
Thu 12:48:40 PM 34.0306 -116.3144 259° West 441 507 27,400 -1,887 Descending Los Angeles Center
Thu 12:49:42 PM 34.0061 -116.4839 260° West 431 496 25,200 -1,887 Descending Los Angeles Center
Thu 12:50:44 PM 33.9939 -116.6244 264° West 425 489 23,500 -1,694 Descending Los Angeles Center
Thu 12:51:46 PM 33.9836 -116.7606 265° West 414 476 21,700 -1,694 Descending Los Angeles Center
Thu 12:52:48 PM 33.9722 -116.8939 264° West 405 466 20,000 -1,645 Descending Los Angeles Center
Thu 12:53:50 PM 33.9625 -117.0211 265° West 388 447 18,300 -1,610 Descending Los Angeles Center
Thu 12:54:51 PM 33.9519 -117.1364 264° West 354 407 16,700 -1,463 Descending Los Angeles Center
Thu 12:55:53 PM 33.9217 -117.2606 254° West 330 380 15,300 -810 Descending Los Angeles Center
Thu 12:56:57 PM 33.9000 -117.3667 256° West 329 379 15,000 -871 Descending Southern California TRACON
Thu 12:57:57 PM 33.9500 -117.4500 306° West 323 372 13,500 -1,450 Descending Southern California TRACON
Thu 12:58:57 PM 34.0000 -117.5500 301° West 313 360 12,100 -1,388 Descending Southern California TRACON
Thu 12:59:58 PM 34.0167 -117.6500 281° West 338 389 10,700 -1,339 Descending Southern California TRACON
Thu 01:00:58 PM 34.0000 -117.7500 259° West 290 334 9,400 -1,350 Descending Southern California TRACON
Thu 01:01:58 PM 33.9833 -117.8500 259° West 295 339 8,000 -1,300 Descending Southern California TRACON
Thu 01:02:58 PM 33.9833 -117.9500 270° West 254 292 6,800 -1,190 Descending Southern California TRACON
Thu 01:03:59 PM 33.9667 -118.0167 253° West 234 269 5,600 -1,096 Descending Southern California TRACON
Thu 01:04:53 PM 33.9667 -118.1000 270° West 232 267 4,700 -1,000 Descending Southern California TRACON

Login

Don't have an account? Register now (free) for customized features, flight alerts, and more!